Pagina principale
METAR-TAF:

METAR-TAF

Aeroporti :

Aeroporto di Podgorica

Podgorica, Montenegro

latitudine: 42-26N, longitudine: 019-17E, altezza: 53 m

Osservazione

Il bollettino è stato emesso 14 minuti fa, alle 03:00 UTC
Vento 5 kt da nord/nord-est
Temperature 3°C
Umidità 81%
Pressione 1021 hPa
Visibilità 10 km o più
nessuna nube inferiore a 1500 m e nessun cumulonembo

METAR: LYPG 240300Z 02005KT CAVOK 03/M00 Q1021 NOSIG

Ora: 04:14 (03:14 UTC)

Previsione

Il bollettino è stato emesso 4 ore e 14 minuti fa, alle 23:00 UTC
Previsione valida dal 24 alle 00 UTC al 24 alle 24 UTC
Vento 5 kt da nord
Visibilità 10 km o più
Poco nuvoloso ad un'altezza di 4000 ft
Nubi sparse ad un'altezza di 9000 ft

TAF: LYPG 232300Z 2400/2424 36005KT 9999 FEW040 SCT090 TX15/2413Z TN01/2405Z

Osservazioni e previsioni meteorologiche di più di 4000 aeroporti (messaggi METAR e TAF).

Le stazioni disponibili sono rappresentate dai dischi gialli e rossi sulla carta.

Puntare il mouse per vedere il nome della stazione.

Clicca sopra per visualizzare le osservazioni e previsioni meteorologiche.

Per cambiare la mappa : fare clic sui pulsanti verdi con una croce nera per ingrandire, il pulsante verde con un trattino per diminuire, o sulla freccia verde per le mappe adiacenti.


METAR-TAF: